49A

Gilmer County Airport

Ellijay, Georgia, USA
METAR K49A 151215Z AUTO 36003KT 10SM CLR 19/17 A3015 RMK AO2 T01870168
Observed Flight Rules
Aug-15 @ 12:15 UTC (24 minutes ago) Visual Flight Rules
Wind Visibility Clouds
360° at 3 knots 10 miles
  • Clear skies
Temperatures Readings
Current 19°C / 66°F
Dewpoint 17°C / 63°F
Humidity 88%
Altimeter 30.15" Hg
Pressure 1021 hPa
Elevation 453
METAR K49A 151215Z AUTO 36003KT 10SM CLR 19/17 A3015 RMK AO2 T01870168
Observed Flight Rules
Aug-15 @ 12:15 UTC
(24 minutes ago)
VFR
Wind Visibility
360° at 3 knots 10 miles
Clouds
  • Clear skies
Temperature Dewpoint
19°C / 66°F 17°C / 63°F
Humidity Altimeter Pressure
88% 30.15" Hg 1021 hPa